sensor_id;sensor_type;location;lat;lon;timestamp;temperature;humidity
16881;DHT22;8557;52.068;5.198;2022-12-29T00:02:11;11.50;99.90
16881;DHT22;8557;52.068;5.198;2022-12-29T00:04:38;11.50;99.90
16881;DHT22;8557;52.068;5.198;2022-12-29T00:07:06;11.50;99.90
16881;DHT22;8557;52.068;5.198;2022-12-29T00:09:34;11.60;99.90
16881;DHT22;8557;52.068;5.198;2022-12-29T00:12:01;11.60;99.90
16881;DHT22;8557;52.068;5.198;2022-12-29T00:14:29;11.60;99.90
16881;DHT22;8557;52.068;5.198;2022-12-29T00:17:13;11.60;99.90
16881;DHT22;8557;52.068;5.198;2022-12-29T00:19:41;11.60;99.90
16881;DHT22;8557;52.068;5.198;2022-12-29T00:22:26;11.60;99.90
16881;DHT22;8557;52.068;5.198;2022-12-29T00:25:12;11.60;99.90
16881;DHT22;8557;52.068;5.198;2022-12-29T00:27:56;11.60;99.90
16881;DHT22;8557;52.068;5.198;2022-12-29T00:30:41;11.60;99.90
16881;DHT22;8557;52.068;5.198;2022-12-29T00:33:28;11.60;99.90
16881;DHT22;8557;52.068;5.198;2022-12-29T00:36:15;11.60;99.90
16881;DHT22;8557;52.068;5.198;2022-12-29T00:38:47;11.60;99.90
16881;DHT22;8557;52.068;5.198;2022-12-29T00:41:32;11.60;99.90
16881;DHT22;8557;52.068;5.198;2022-12-29T00:44:16;11.60;99.90
16881;DHT22;8557;52.068;5.198;2022-12-29T00:46:43;11.60;99.90
16881;DHT22;8557;52.068;5.198;2022-12-29T00:49:11;11.70;99.90
16881;DHT22;8557;52.068;5.198;2022-12-29T00:51:56;11.60;99.90
16881;DHT22;8557;52.068;5.198;2022-12-29T00:54:25;11.60;99.90
16881;DHT22;8557;52.068;5.198;2022-12-29T00:56:52;11.60;99.90
16881;DHT22;8557;52.068;5.198;2022-12-29T00:59:20;11.70;99.90
16881;DHT22;8557;52.068;5.198;2022-12-29T01:01:48;11.60;99.90
16881;DHT22;8557;52.068;5.198;2022-12-29T01:04:15;11.60;99.90
16881;DHT22;8557;52.068;5.198;2022-12-29T01:06:42;11.60;99.90
16881;DHT22;8557;52.068;5.198;2022-12-29T01:09:10;11.60;99.90
16881;DHT22;8557;52.068;5.198;2022-12-29T01:11:56;11.60;99.90
16881;DHT22;8557;52.068;5.198;2022-12-29T01:14:23;11.60;99.90
16881;DHT22;8557;52.068;5.198;2022-12-29T01:16:50;11.50;99.90
16881;DHT22;8557;52.068;5.198;2022-12-29T01:19:18;11.40;99.90
16881;DHT22;8557;52.068;5.198;2022-12-29T01:21:45;11.40;99.90
16881;DHT22;8557;52.068;5.198;2022-12-29T01:24:13;11.40;99.90
16881;DHT22;8557;52.068;5.198;2022-12-29T01:26:40;11.20;99.90
16881;DHT22;8557;52.068;5.198;2022-12-29T01:29:08;11.20;99.90
16881;DHT22;8557;52.068;5.198;2022-12-29T01:31:35;11.10;99.90
16881;DHT22;8557;52.068;5.198;2022-12-29T01:34:03;11.10;99.90
16881;DHT22;8557;52.068;5.198;2022-12-29T01:36:30;11.00;99.90
16881;DHT22;8557;52.068;5.198;2022-12-29T01:38:56;11.00;99.90
16881;DHT22;8557;52.068;5.198;2022-12-29T01:41:23;11.00;99.90
16881;DHT22;8557;52.068;5.198;2022-12-29T01:43:52;10.90;99.90
16881;DHT22;8557;52.068;5.198;2022-12-29T01:46:24;10.80;99.90
16881;DHT22;8557;52.068;5.198;2022-12-29T01:48:54;10.90;99.90
16881;DHT22;8557;52.068;5.198;2022-12-29T01:51:23;10.90;99.90
16881;DHT22;8557;52.068;5.198;2022-12-29T01:53:51;10.90;99.90
16881;DHT22;8557;52.068;5.198;2022-12-29T01:56:20;10.90;99.90
16881;DHT22;8557;52.068;5.198;2022-12-29T01:58:51;10.90;99.90
16881;DHT22;8557;52.068;5.198;2022-12-29T02:01:22;10.90;99.90
16881;DHT22;8557;52.068;5.198;2022-12-29T02:03:50;11.00;99.90
16881;DHT22;8557;52.068;5.198;2022-12-29T02:06:21;11.00;99.90
16881;DHT22;8557;52.068;5.198;2022-12-29T02:08:50;10.90;99.90
16881;DHT22;8557;52.068;5.198;2022-12-29T02:11:17;11.00;99.90
16881;DHT22;8557;52.068;5.198;2022-12-29T02:13:44;11.00;99.90
16881;DHT22;8557;52.068;5.198;2022-12-29T02:16:26;11.00;99.90
16881;DHT22;8557;52.068;5.198;2022-12-29T02:19:09;11.00;99.90
16881;DHT22;8557;52.068;5.198;2022-12-29T02:21:56;11.00;99.90
16881;DHT22;8557;52.068;5.198;2022-12-29T02:24:44;11.00;99.90
16881;DHT22;8557;52.068;5.198;2022-12-29T02:33:21;10.90;99.90
16881;DHT22;8557;52.068;5.198;2022-12-29T02:35:56;10.90;99.90
16881;DHT22;8557;52.068;5.198;2022-12-29T02:38:45;10.80;99.90
16881;DHT22;8557;52.068;5.198;2022-12-29T02:41:20;10.90;99.90
16881;DHT22;8557;52.068;5.198;2022-12-29T02:43:53;10.90;99.90
16881;DHT22;8557;52.068;5.198;2022-12-29T02:46:24;11.00;99.90
16881;DHT22;8557;52.068;5.198;2022-12-29T02:49:01;11.00;99.90
16881;DHT22;8557;52.068;5.198;2022-12-29T02:51:36;11.00;99.90
16881;DHT22;8557;52.068;5.198;2022-12-29T02:54:04;11.00;99.90
16881;DHT22;8557;52.068;5.198;2022-12-29T02:56:49;11.00;99.90
16881;DHT22;8557;52.068;5.198;2022-12-29T02:59:16;11.00;99.90
16881;DHT22;8557;52.068;5.198;2022-12-29T03:01:57;11.10;99.90
16881;DHT22;8557;52.068;5.198;2022-12-29T03:07:37;11.10;99.90
16881;DHT22;8557;52.068;5.198;2022-12-29T03:10:15;11.00;99.90
16881;DHT22;8557;52.068;5.198;2022-12-29T03:12:49;11.00;99.90
16881;DHT22;8557;52.068;5.198;2022-12-29T03:15:42;11.00;99.90
16881;DHT22;8557;52.068;5.198;2022-12-29T03:18:44;10.90;99.90
16881;DHT22;8557;52.068;5.198;2022-12-29T03:21:17;10.90;99.90
16881;DHT22;8557;52.068;5.198;2022-12-29T03:23:48;10.90;99.90
16881;DHT22;8557;52.068;5.198;2022-12-29T03:26:17;10.80;99.90
16881;DHT22;8557;52.068;5.198;2022-12-29T03:28:48;10.80;99.90
16881;DHT22;8557;52.068;5.198;2022-12-29T03:31:18;10.80;99.90
16881;DHT22;8557;52.068;5.198;2022-12-29T03:33:46;10.80;99.90
16881;DHT22;8557;52.068;5.198;2022-12-29T03:36:18;10.70;99.90
16881;DHT22;8557;52.068;5.198;2022-12-29T03:38:50;10.70;99.90
16881;DHT22;8557;52.068;5.198;2022-12-29T03:41:22;10.70;99.90
16881;DHT22;8557;52.068;5.198;2022-12-29T03:43:50;10.60;99.90
16881;DHT22;8557;52.068;5.198;2022-12-29T03:46:17;10.50;99.90
16881;DHT22;8557;52.068;5.198;2022-12-29T03:48:43;10.50;99.90
16881;DHT22;8557;52.068;5.198;2022-12-29T03:51:10;10.50;99.90
16881;DHT22;8557;52.068;5.198;2022-12-29T03:53:38;10.50;99.90
16881;DHT22;8557;52.068;5.198;2022-12-29T03:56:05;10.50;99.90
16881;DHT22;8557;52.068;5.198;2022-12-29T03:58:32;10.40;99.90
16881;DHT22;8557;52.068;5.198;2022-12-29T04:00:59;10.40;99.90
16881;DHT22;8557;52.068;5.198;2022-12-29T04:03:26;10.30;99.90
16881;DHT22;8557;52.068;5.198;2022-12-29T04:05:53;10.30;99.90
16881;DHT22;8557;52.068;5.198;2022-12-29T04:08:19;10.30;99.90
16881;DHT22;8557;52.068;5.198;2022-12-29T04:10:49;10.30;99.90
16881;DHT22;8557;52.068;5.198;2022-12-29T04:13:16;10.30;99.90
16881;DHT22;8557;52.068;5.198;2022-12-29T04:15:43;10.30;99.90
16881;DHT22;8557;52.068;5.198;2022-12-29T04:18:10;10.30;99.90
16881;DHT22;8557;52.068;5.198;2022-12-29T04:20:37;10.30;99.90
16881;DHT22;8557;52.068;5.198;2022-12-29T04:23:22;10.20;99.90
16881;DHT22;8557;52.068;5.198;2022-12-29T04:25:50;10.30;99.90
16881;DHT22;8557;52.068;5.198;2022-12-29T04:28:17;10.30;99.90
16881;DHT22;8557;52.068;5.198;2022-12-29T04:30:44;10.30;99.90
16881;DHT22;8557;52.068;5.198;2022-12-29T04:33:11;10.30;99.90
16881;DHT22;8557;52.068;5.198;2022-12-29T04:35:38;10.30;99.90
16881;DHT22;8557;52.068;5.198;2022-12-29T04:38:05;10.30;99.90
16881;DHT22;8557;52.068;5.198;2022-12-29T04:40:32;10.40;99.90
16881;DHT22;8557;52.068;5.198;2022-12-29T04:43:00;10.40;99.90
16881;DHT22;8557;52.068;5.198;2022-12-29T04:45:27;10.50;99.90
16881;DHT22;8557;52.068;5.198;2022-12-29T04:47:54;10.50;99.90
16881;DHT22;8557;52.068;5.198;2022-12-29T04:50:21;10.40;99.90
16881;DHT22;8557;52.068;5.198;2022-12-29T04:52:47;10.40;99.90
16881;DHT22;8557;52.068;5.198;2022-12-29T04:55:14;10.50;99.90
16881;DHT22;8557;52.068;5.198;2022-12-29T04:57:41;10.40;99.90
16881;DHT22;8557;52.068;5.198;2022-12-29T05:00:11;10.40;99.90
16881;DHT22;8557;52.068;5.198;2022-12-29T05:02:39;10.40;99.90
16881;DHT22;8557;52.068;5.198;2022-12-29T05:05:06;10.30;99.90
16881;DHT22;8557;52.068;5.198;2022-12-29T05:07:33;10.30;99.90
16881;DHT22;8557;52.068;5.198;2022-12-29T05:10:00;10.30;99.90
16881;DHT22;8557;52.068;5.198;2022-12-29T05:12:29;10.30;99.90
16881;DHT22;8557;52.068;5.198;2022-12-29T05:14:56;10.30;99.90
16881;DHT22;8557;52.068;5.198;2022-12-29T05:17:24;10.30;99.90
16881;DHT22;8557;52.068;5.198;2022-12-29T05:19:51;10.30;99.90
16881;DHT22;8557;52.068;5.198;2022-12-29T05:22:18;10.30;99.90
16881;DHT22;8557;52.068;5.198;2022-12-29T05:24:45;10.30;99.90
16881;DHT22;8557;52.068;5.198;2022-12-29T05:27:12;10.40;99.90
16881;DHT22;8557;52.068;5.198;2022-12-29T05:29:39;10.40;99.90
16881;DHT22;8557;52.068;5.198;2022-12-29T05:32:06;10.40;99.90
16881;DHT22;8557;52.068;5.198;2022-12-29T05:34:34;10.40;99.90
16881;DHT22;8557;52.068;5.198;2022-12-29T05:37:01;10.40;99.90
16881;DHT22;8557;52.068;5.198;2022-12-29T05:39:28;10.40;99.90
16881;DHT22;8557;52.068;5.198;2022-12-29T05:41:54;10.40;99.90
16881;DHT22;8557;52.068;5.198;2022-12-29T05:44:21;10.40;99.90
16881;DHT22;8557;52.068;5.198;2022-12-29T05:46:48;10.40;99.90
16881;DHT22;8557;52.068;5.198;2022-12-29T05:49:15;10.40;99.90
16881;DHT22;8557;52.068;5.198;2022-12-29T05:51:43;10.40;99.90
16881;DHT22;8557;52.068;5.198;2022-12-29T05:54:10;10.50;99.90
16881;DHT22;8557;52.068;5.198;2022-12-29T05:56:38;10.50;99.90
16881;DHT22;8557;52.068;5.198;2022-12-29T05:59:05;10.50;99.90
16881;DHT22;8557;52.068;5.198;2022-12-29T06:01:32;10.50;99.90
16881;DHT22;8557;52.068;5.198;2022-12-29T06:03:59;10.50;99.90
16881;DHT22;8557;52.068;5.198;2022-12-29T06:06:26;10.40;99.90
16881;DHT22;8557;52.068;5.198;2022-12-29T06:08:54;10.40;99.90
16881;DHT22;8557;52.068;5.198;2022-12-29T06:11:21;10.30;99.90
16881;DHT22;8557;52.068;5.198;2022-12-29T06:13:48;10.30;99.90
16881;DHT22;8557;52.068;5.198;2022-12-29T06:16:15;10.30;99.90
16881;DHT22;8557;52.068;5.198;2022-12-29T06:18:42;10.30;99.90
16881;DHT22;8557;52.068;5.198;2022-12-29T06:21:08;10.30;99.90
16881;DHT22;8557;52.068;5.198;2022-12-29T06:23:35;10.30;99.90
16881;DHT22;8557;52.068;5.198;2022-12-29T06:26:03;10.30;99.90
16881;DHT22;8557;52.068;5.198;2022-12-29T06:28:30;10.20;99.90
16881;DHT22;8557;52.068;5.198;2022-12-29T06:30:57;10.20;99.90
16881;DHT22;8557;52.068;5.198;2022-12-29T06:33:24;10.20;99.90
16881;DHT22;8557;52.068;5.198;2022-12-29T06:35:51;10.00;99.90
16881;DHT22;8557;52.068;5.198;2022-12-29T06:38:18;10.00;99.90
16881;DHT22;8557;52.068;5.198;2022-12-29T06:40:44;10.10;99.90
16881;DHT22;8557;52.068;5.198;2022-12-29T06:43:13;10.00;99.90
16881;DHT22;8557;52.068;5.198;2022-12-29T06:45:40;10.00;99.90
16881;DHT22;8557;52.068;5.198;2022-12-29T06:48:07;10.00;99.90
16881;DHT22;8557;52.068;5.198;2022-12-29T06:50:34;10.00;99.90
16881;DHT22;8557;52.068;5.198;2022-12-29T06:53:01;10.10;99.90
16881;DHT22;8557;52.068;5.198;2022-12-29T06:55:28;10.10;99.90
16881;DHT22;8557;52.068;5.198;2022-12-29T06:57:55;10.10;99.90
16881;DHT22;8557;52.068;5.198;2022-12-29T07:00:23;10.00;99.90
16881;DHT22;8557;52.068;5.198;2022-12-29T07:02:50;10.10;99.90
16881;DHT22;8557;52.068;5.198;2022-12-29T07:05:17;10.00;99.90
16881;DHT22;8557;52.068;5.198;2022-12-29T07:07:44;9.90;99.90
16881;DHT22;8557;52.068;5.198;2022-12-29T07:10:11;9.80;99.90
16881;DHT22;8557;52.068;5.198;2022-12-29T07:12:38;9.70;99.90
16881;DHT22;8557;52.068;5.198;2022-12-29T07:15:05;9.50;99.90
16881;DHT22;8557;52.068;5.198;2022-12-29T07:17:34;9.30;99.90
16881;DHT22;8557;52.068;5.198;2022-12-29T07:20:01;9.30;99.90
16881;DHT22;8557;52.068;5.198;2022-12-29T07:22:28;9.20;99.90
16881;DHT22;8557;52.068;5.198;2022-12-29T07:24:55;9.10;99.90
16881;DHT22;8557;52.068;5.198;2022-12-29T07:27:21;9.10;99.90
16881;DHT22;8557;52.068;5.198;2022-12-29T07:29:48;9.00;99.90
16881;DHT22;8557;52.068;5.198;2022-12-29T07:32:15;9.00;99.90
16881;DHT22;8557;52.068;5.198;2022-12-29T07:34:43;9.20;99.90
16881;DHT22;8557;52.068;5.198;2022-12-29T07:37:12;9.20;99.90
16881;DHT22;8557;52.068;5.198;2022-12-29T07:39:40;9.20;99.90
16881;DHT22;8557;52.068;5.198;2022-12-29T07:42:06;9.30;99.90
16881;DHT22;8557;52.068;5.198;2022-12-29T07:44:33;9.40;99.90
16881;DHT22;8557;52.068;5.198;2022-12-29T07:47:01;9.50;99.90
16881;DHT22;8557;52.068;5.198;2022-12-29T07:49:28;9.50;99.90
16881;DHT22;8557;52.068;5.198;2022-12-29T07:51:56;9.60;99.90
16881;DHT22;8557;52.068;5.198;2022-12-29T07:54:23;9.60;99.90
16881;DHT22;8557;52.068;5.198;2022-12-29T07:56:50;9.60;99.90
16881;DHT22;8557;52.068;5.198;2022-12-29T07:59:17;9.60;99.90
16881;DHT22;8557;52.068;5.198;2022-12-29T08:01:44;9.60;99.90
16881;DHT22;8557;52.068;5.198;2022-12-29T08:04:11;9.60;99.90
16881;DHT22;8557;52.068;5.198;2022-12-29T08:06:37;9.70;99.90
16881;DHT22;8557;52.068;5.198;2022-12-29T08:09:05;9.80;99.90
16881;DHT22;8557;52.068;5.198;2022-12-29T08:11:32;9.80;99.90
16881;DHT22;8557;52.068;5.198;2022-12-29T08:13:59;9.90;99.90
16881;DHT22;8557;52.068;5.198;2022-12-29T08:16:26;9.90;99.90
16881;DHT22;8557;52.068;5.198;2022-12-29T08:18:52;9.90;99.90
16881;DHT22;8557;52.068;5.198;2022-12-29T08:21:19;10.00;99.90
16881;DHT22;8557;52.068;5.198;2022-12-29T08:23:47;10.00;99.90
16881;DHT22;8557;52.068;5.198;2022-12-29T08:26:15;10.10;99.90
16881;DHT22;8557;52.068;5.198;2022-12-29T08:28:42;10.10;99.90
16881;DHT22;8557;52.068;5.198;2022-12-29T08:31:09;10.10;99.90
16881;DHT22;8557;52.068;5.198;2022-12-29T08:33:36;10.10;99.90
16881;DHT22;8557;52.068;5.198;2022-12-29T08:36:05;10.10;99.90
16881;DHT22;8557;52.068;5.198;2022-12-29T08:38:33;10.10;99.90
16881;DHT22;8557;52.068;5.198;2022-12-29T08:41:00;10.10;99.90
16881;DHT22;8557;52.068;5.198;2022-12-29T08:43:28;10.10;99.90
16881;DHT22;8557;52.068;5.198;2022-12-29T08:45:56;10.10;99.90
16881;DHT22;8557;52.068;5.198;2022-12-29T08:48:23;10.20;99.90
16881;DHT22;8557;52.068;5.198;2022-12-29T08:50:50;10.20;99.90
16881;DHT22;8557;52.068;5.198;2022-12-29T08:53:17;10.10;99.90
16881;DHT22;8557;52.068;5.198;2022-12-29T08:55:45;10.10;99.90
16881;DHT22;8557;52.068;5.198;2022-12-29T08:58:12;10.10;99.90
16881;DHT22;8557;52.068;5.198;2022-12-29T09:00:41;10.10;99.90
16881;DHT22;8557;52.068;5.198;2022-12-29T09:03:08;10.10;99.90
16881;DHT22;8557;52.068;5.198;2022-12-29T09:05:35;10.10;99.90
16881;DHT22;8557;52.068;5.198;2022-12-29T09:08:02;10.10;99.90
16881;DHT22;8557;52.068;5.198;2022-12-29T09:10:29;10.10;99.90
16881;DHT22;8557;52.068;5.198;2022-12-29T09:12:56;10.10;99.90
16881;DHT22;8557;52.068;5.198;2022-12-29T09:15:23;10.00;99.90
16881;DHT22;8557;52.068;5.198;2022-12-29T09:17:51;10.10;99.90
16881;DHT22;8557;52.068;5.198;2022-12-29T09:20:19;10.10;99.90
16881;DHT22;8557;52.068;5.198;2022-12-29T09:22:46;10.10;99.90
16881;DHT22;8557;52.068;5.198;2022-12-29T09:25:14;10.00;99.90
16881;DHT22;8557;52.068;5.198;2022-12-29T09:27:40;10.00;99.90
16881;DHT22;8557;52.068;5.198;2022-12-29T09:30:10;10.00;99.90
16881;DHT22;8557;52.068;5.198;2022-12-29T09:32:37;10.00;99.90
16881;DHT22;8557;52.068;5.198;2022-12-29T09:35:06;9.90;99.90
16881;DHT22;8557;52.068;5.198;2022-12-29T09:37:33;9.80;99.90
16881;DHT22;8557;52.068;5.198;2022-12-29T09:40:00;9.80;99.90
16881;DHT22;8557;52.068;5.198;2022-12-29T09:42:29;9.90;99.90
16881;DHT22;8557;52.068;5.198;2022-12-29T09:45:07;9.70;99.90
16881;DHT22;8557;52.068;5.198;2022-12-29T09:47:36;9.70;99.90
16881;DHT22;8557;52.068;5.198;2022-12-29T09:50:12;9.80;99.90
16881;DHT22;8557;52.068;5.198;2022-12-29T09:52:46;9.80;99.90
16881;DHT22;8557;52.068;5.198;2022-12-29T09:55:16;9.70;99.90
16881;DHT22;8557;52.068;5.198;2022-12-29T09:57:46;9.70;99.90
16881;DHT22;8557;52.068;5.198;2022-12-29T10:00:16;9.80;99.90
16881;DHT22;8557;52.068;5.198;2022-12-29T10:02:46;9.80;99.90
16881;DHT22;8557;52.068;5.198;2022-12-29T10:05:29;9.80;99.90
16881;DHT22;8557;52.068;5.198;2022-12-29T10:08:07;9.90;99.90
16881;DHT22;8557;52.068;5.198;2022-12-29T10:10:40;9.80;99.90
16881;DHT22;8557;52.068;5.198;2022-12-29T10:13:26;9.80;99.90
16881;DHT22;8557;52.068;5.198;2022-12-29T10:16:02;9.90;99.90
16881;DHT22;8557;52.068;5.198;2022-12-29T10:19:03;9.90;99.90
16881;DHT22;8557;52.068;5.198;2022-12-29T10:21:44;9.90;99.90
16881;DHT22;8557;52.068;5.198;2022-12-29T10:24:15;9.90;99.90
16881;DHT22;8557;52.068;5.198;2022-12-29T10:26:44;9.80;99.90
16881;DHT22;8557;52.068;5.198;2022-12-29T10:29:16;9.90;99.90
16881;DHT22;8557;52.068;5.198;2022-12-29T10:31:46;9.90;99.90
16881;DHT22;8557;52.068;5.198;2022-12-29T10:34:19;9.90;99.90
16881;DHT22;8557;52.068;5.198;2022-12-29T10:36:49;9.90;99.90
16881;DHT22;8557;52.068;5.198;2022-12-29T10:39:22;9.90;99.90
16881;DHT22;8557;52.068;5.198;2022-12-29T10:41:53;10.00;99.90
16881;DHT22;8557;52.068;5.198;2022-12-29T10:44:30;10.10;99.90
16881;DHT22;8557;52.068;5.198;2022-12-29T10:47:00;10.00;99.90
16881;DHT22;8557;52.068;5.198;2022-12-29T10:49:30;10.10;99.90
16881;DHT22;8557;52.068;5.198;2022-12-29T10:52:02;10.00;99.90
16881;DHT22;8557;52.068;5.198;2022-12-29T10:54:32;9.90;99.90
16881;DHT22;8557;52.068;5.198;2022-12-29T10:57:03;9.90;99.90
16881;DHT22;8557;52.068;5.198;2022-12-29T10:59:32;9.90;99.90
16881;DHT22;8557;52.068;5.198;2022-12-29T11:04:59;10.00;99.90
16881;DHT22;8557;52.068;5.198;2022-12-29T11:07:30;10.10;99.90
16881;DHT22;8557;52.068;5.198;2022-12-29T11:10:17;10.10;99.90
16881;DHT22;8557;52.068;5.198;2022-12-29T11:12:55;10.30;99.90
16881;DHT22;8557;52.068;5.198;2022-12-29T11:15:22;10.30;99.90
16881;DHT22;8557;52.068;5.198;2022-12-29T11:17:51;10.50;99.90
16881;DHT22;8557;52.068;5.198;2022-12-29T11:20:31;10.70;99.90
16881;DHT22;8557;52.068;5.198;2022-12-29T11:23:00;10.70;99.90
16881;DHT22;8557;52.068;5.198;2022-12-29T11:25:27;10.60;99.90
16881;DHT22;8557;52.068;5.198;2022-12-29T11:27:59;10.50;99.90
16881;DHT22;8557;52.068;5.198;2022-12-29T11:30:28;10.40;99.90
16881;DHT22;8557;52.068;5.198;2022-12-29T11:32:56;10.30;99.90
16881;DHT22;8557;52.068;5.198;2022-12-29T11:35:31;10.20;99.90
16881;DHT22;8557;52.068;5.198;2022-12-29T11:38:00;10.20;99.90
16881;DHT22;8557;52.068;5.198;2022-12-29T11:40:28;10.20;99.90
16881;DHT22;8557;52.068;5.198;2022-12-29T11:42:57;10.10;99.90
16881;DHT22;8557;52.068;5.198;2022-12-29T11:45:26;10.10;99.90
16881;DHT22;8557;52.068;5.198;2022-12-29T11:47:57;10.00;99.90
16881;DHT22;8557;52.068;5.198;2022-12-29T11:50:27;10.10;99.90
16881;DHT22;8557;52.068;5.198;2022-12-29T11:53:00;10.20;99.90
16881;DHT22;8557;52.068;5.198;2022-12-29T11:55:28;10.10;99.90
16881;DHT22;8557;52.068;5.198;2022-12-29T11:57:58;10.10;99.90
16881;DHT22;8557;52.068;5.198;2022-12-29T12:00:28;10.20;99.90
16881;DHT22;8557;52.068;5.198;2022-12-29T12:02:59;10.30;99.90
16881;DHT22;8557;52.068;5.198;2022-12-29T12:05:36;10.40;99.90
16881;DHT22;8557;52.068;5.198;2022-12-29T12:08:13;10.50;99.90
16881;DHT22;8557;52.068;5.198;2022-12-29T12:10:44;10.50;99.90
16881;DHT22;8557;52.068;5.198;2022-12-29T12:13:19;10.50;99.90
16881;DHT22;8557;52.068;5.198;2022-12-29T12:15:51;10.50;99.90
16881;DHT22;8557;52.068;5.198;2022-12-29T12:18:33;10.50;99.90
16881;DHT22;8557;52.068;5.198;2022-12-29T12:21:12;10.50;99.90
16881;DHT22;8557;52.068;5.198;2022-12-29T12:24:05;10.60;99.90
16881;DHT22;8557;52.068;5.198;2022-12-29T12:26:39;10.70;99.90
16881;DHT22;8557;52.068;5.198;2022-12-29T12:29:12;10.70;99.90
16881;DHT22;8557;52.068;5.198;2022-12-29T12:31:46;10.70;99.90
16881;DHT22;8557;52.068;5.198;2022-12-29T12:34:20;10.70;99.90
16881;DHT22;8557;52.068;5.198;2022-12-29T12:37:02;10.70;99.90
16881;DHT22;8557;52.068;5.198;2022-12-29T12:39:41;10.70;99.90
16881;DHT22;8557;52.068;5.198;2022-12-29T12:42:25;10.80;99.90
16881;DHT22;8557;52.068;5.198;2022-12-29T12:45:28;10.70;99.90
16881;DHT22;8557;52.068;5.198;2022-12-29T12:48:08;10.70;99.90
16881;DHT22;8557;52.068;5.198;2022-12-29T12:50:49;10.90;99.90
16881;DHT22;8557;52.068;5.198;2022-12-29T12:53:33;11.00;99.90
16881;DHT22;8557;52.068;5.198;2022-12-29T12:56:24;11.20;99.90
16881;DHT22;8557;52.068;5.198;2022-12-29T12:58:58;11.60;99.90
16881;DHT22;8557;52.068;5.198;2022-12-29T13:01:36;11.40;99.90
16881;DHT22;8557;52.068;5.198;2022-12-29T13:04:25;11.30;99.90
16881;DHT22;8557;52.068;5.198;2022-12-29T13:07:06;11.30;99.90
16881;DHT22;8557;52.068;5.198;2022-12-29T13:09:52;11.30;99.90
16881;DHT22;8557;52.068;5.198;2022-12-29T13:12:33;11.40;99.90
16881;DHT22;8557;52.068;5.198;2022-12-29T13:15:13;11.20;99.90
16881;DHT22;8557;52.068;5.198;2022-12-29T13:17:47;11.20;99.90
16881;DHT22;8557;52.068;5.198;2022-12-29T13:20:23;11.10;99.90
16881;DHT22;8557;52.068;5.198;2022-12-29T13:22:58;11.00;99.90
16881;DHT22;8557;52.068;5.198;2022-12-29T13:25:31;11.00;99.90
16881;DHT22;8557;52.068;5.198;2022-12-29T13:28:06;11.00;99.90
16881;DHT22;8557;52.068;5.198;2022-12-29T13:30:41;10.90;99.90
16881;DHT22;8557;52.068;5.198;2022-12-29T13:33:17;10.80;99.90
16881;DHT22;8557;52.068;5.198;2022-12-29T13:35:59;10.80;99.90
16881;DHT22;8557;52.068;5.198;2022-12-29T13:38:32;10.90;99.90
16881;DHT22;8557;52.068;5.198;2022-12-29T13:41:03;10.80;99.90
16881;DHT22;8557;52.068;5.198;2022-12-29T13:43:34;10.70;99.90
16881;DHT22;8557;52.068;5.198;2022-12-29T13:46:06;10.60;99.90
16881;DHT22;8557;52.068;5.198;2022-12-29T13:48:39;10.70;99.90
16881;DHT22;8557;52.068;5.198;2022-12-29T13:51:08;10.60;99.90
16881;DHT22;8557;52.068;5.198;2022-12-29T13:53:57;10.70;99.90
16881;DHT22;8557;52.068;5.198;2022-12-29T13:56:31;10.60;99.90
16881;DHT22;8557;52.068;5.198;2022-12-29T13:59:06;10.60;99.90
16881;DHT22;8557;52.068;5.198;2022-12-29T14:01:39;10.50;99.90
16881;DHT22;8557;52.068;5.198;2022-12-29T14:04:11;10.40;99.90
16881;DHT22;8557;52.068;5.198;2022-12-29T14:06:38;10.30;99.90
16881;DHT22;8557;52.068;5.198;2022-12-29T14:12:30;10.10;99.90
16881;DHT22;8557;52.068;5.198;2022-12-29T14:18:05;9.80;99.90
16881;DHT22;8557;52.068;5.198;2022-12-29T14:20:33;9.90;99.90
16881;DHT22;8557;52.068;5.198;2022-12-29T14:23:14;9.90;99.90
16881;DHT22;8557;52.068;5.198;2022-12-29T14:26:00;9.80;99.90
16881;DHT22;8557;52.068;5.198;2022-12-29T14:28:36;9.70;99.90
16881;DHT22;8557;52.068;5.198;2022-12-29T14:31:32;9.60;99.90
16881;DHT22;8557;52.068;5.198;2022-12-29T14:36:54;9.40;99.90
16881;DHT22;8557;52.068;5.198;2022-12-29T14:39:32;9.40;99.90
16881;DHT22;8557;52.068;5.198;2022-12-29T14:42:03;9.50;99.90
16881;DHT22;8557;52.068;5.198;2022-12-29T14:44:31;9.50;99.90
16881;DHT22;8557;52.068;5.198;2022-12-29T14:47:04;9.50;99.90
16881;DHT22;8557;52.068;5.198;2022-12-29T14:49:40;9.50;99.90
16881;DHT22;8557;52.068;5.198;2022-12-29T14:52:14;9.50;99.90
16881;DHT22;8557;52.068;5.198;2022-12-29T14:54:59;9.50;99.90
16881;DHT22;8557;52.068;5.198;2022-12-29T14:57:49;9.50;99.90
16881;DHT22;8557;52.068;5.198;2022-12-29T15:00:21;9.40;99.90
16881;DHT22;8557;52.068;5.198;2022-12-29T15:02:59;9.50;99.90
16881;DHT22;8557;52.068;5.198;2022-12-29T15:05:33;9.60;99.90
16881;DHT22;8557;52.068;5.198;2022-12-29T15:08:02;9.60;99.90
16881;DHT22;8557;52.068;5.198;2022-12-29T15:10:36;9.60;99.90
16881;DHT22;8557;52.068;5.198;2022-12-29T15:13:05;9.60;99.90
16881;DHT22;8557;52.068;5.198;2022-12-29T15:15:37;9.60;99.90
16881;DHT22;8557;52.068;5.198;2022-12-29T15:18:24;9.60;99.90
16881;DHT22;8557;52.068;5.198;2022-12-29T15:20:54;9.70;99.90
16881;DHT22;8557;52.068;5.198;2022-12-29T15:23:22;9.70;99.90
16881;DHT22;8557;52.068;5.198;2022-12-29T15:25:53;9.70;99.90
16881;DHT22;8557;52.068;5.198;2022-12-29T15:28:21;9.70;99.90
16881;DHT22;8557;52.068;5.198;2022-12-29T15:30:56;9.70;99.90
16881;DHT22;8557;52.068;5.198;2022-12-29T15:33:26;9.80;99.90
16881;DHT22;8557;52.068;5.198;2022-12-29T15:35:55;9.70;99.90
16881;DHT22;8557;52.068;5.198;2022-12-29T15:38:24;9.60;99.90
16881;DHT22;8557;52.068;5.198;2022-12-29T15:40:53;9.60;99.90
16881;DHT22;8557;52.068;5.198;2022-12-29T15:43:40;9.60;99.90
16881;DHT22;8557;52.068;5.198;2022-12-29T15:46:10;9.70;99.90
16881;DHT22;8557;52.068;5.198;2022-12-29T15:48:39;9.60;99.90
16881;DHT22;8557;52.068;5.198;2022-12-29T15:51:18;9.60;99.90
16881;DHT22;8557;52.068;5.198;2022-12-29T15:53:47;9.50;99.90
16881;DHT22;8557;52.068;5.198;2022-12-29T15:56:15;9.60;99.90
16881;DHT22;8557;52.068;5.198;2022-12-29T15:58:44;9.60;99.90
16881;DHT22;8557;52.068;5.198;2022-12-29T16:01:26;9.60;99.90
16881;DHT22;8557;52.068;5.198;2022-12-29T16:03:57;9.50;99.90
16881;DHT22;8557;52.068;5.198;2022-12-29T16:06:31;9.50;99.90
16881;DHT22;8557;52.068;5.198;2022-12-29T16:09:00;9.60;99.90
16881;DHT22;8557;52.068;5.198;2022-12-29T16:11:32;9.60;99.90
16881;DHT22;8557;52.068;5.198;2022-12-29T16:14:02;9.60;99.90
16881;DHT22;8557;52.068;5.198;2022-12-29T16:16:36;9.50;99.90
16881;DHT22;8557;52.068;5.198;2022-12-29T16:19:21;9.50;99.90
16881;DHT22;8557;52.068;5.198;2022-12-29T16:21:49;9.60;99.90
16881;DHT22;8557;52.068;5.198;2022-12-29T16:24:17;9.50;99.90
16881;DHT22;8557;52.068;5.198;2022-12-29T16:26:48;9.50;99.90
16881;DHT22;8557;52.068;5.198;2022-12-29T16:29:16;9.40;99.90
16881;DHT22;8557;52.068;5.198;2022-12-29T16:31:52;9.30;99.90
16881;DHT22;8557;52.068;5.198;2022-12-29T16:34:29;9.30;99.90
16881;DHT22;8557;52.068;5.198;2022-12-29T16:36:58;9.20;99.90
16881;DHT22;8557;52.068;5.198;2022-12-29T16:39:28;9.20;99.90